sensor_id;sensor_type;location;lat;lon;timestamp;P1;durP1;ratioP1;P2;durP2;ratioP2
67675;SDS011;54456;48.436;10.028;2022-12-07T10:18:25;12.10;;;4.78;;
67675;SDS011;54456;48.436;10.028;2022-12-07T10:20:18;9.93;;;4.30;;
67675;SDS011;54456;48.436;10.028;2022-12-07T10:22:00;11.57;;;4.28;;
67675;SDS011;54456;48.436;10.028;2022-12-07T10:23:37;11.55;;;3.80;;
67675;SDS011;54456;48.436;10.028;2022-12-07T10:25:09;10.77;;;4.13;;
67675;SDS011;54456;48.436;10.028;2022-12-07T10:28:22;9.85;;;3.80;;
67675;SDS011;54456;48.436;10.028;2022-12-07T10:29:53;9.47;;;4.13;;
67675;SDS011;54456;48.436;10.028;2022-12-07T10:31:23;8.93;;;3.72;;
67675;SDS011;54456;48.436;10.028;2022-12-07T10:32:54;11.23;;;3.85;;
67675;SDS011;54456;48.436;10.028;2022-12-07T10:34:26;12.70;;;3.73;;
67675;SDS011;54456;48.436;10.028;2022-12-07T10:35:57;9.00;;;3.78;;
67675;SDS011;54456;48.436;10.028;2022-12-07T10:37:28;8.48;;;3.55;;
67675;SDS011;54456;48.436;10.028;2022-12-07T10:39:28;8.15;;;3.38;;
67675;SDS011;54456;48.436;10.028;2022-12-07T10:41:14;8.27;;;3.53;;
67675;SDS011;54456;48.436;10.028;2022-12-07T10:42:49;10.07;;;3.72;;
67675;SDS011;54456;48.436;10.028;2022-12-07T10:44:48;10.02;;;3.78;;
67675;SDS011;54456;48.436;10.028;2022-12-07T10:57:56;9.02;;;3.50;;
67675;SDS011;54456;48.436;10.028;2022-12-07T11:03:29;8.10;;;3.40;;
67675;SDS011;54456;48.436;10.028;2022-12-07T11:07:12;8.05;;;3.70;;
67675;SDS011;54456;48.436;10.028;2022-12-07T11:12:20;10.32;;;4.00;;
67675;SDS011;54456;48.436;10.028;2022-12-07T11:24:22;8.18;;;3.17;;
67675;SDS011;54456;48.436;10.028;2022-12-07T11:27:51;6.85;;;2.90;;
67675;SDS011;54456;48.436;10.028;2022-12-07T11:29:35;7.85;;;3.05;;
67675;SDS011;54456;48.436;10.028;2022-12-07T11:31:20;9.15;;;3.38;;
67675;SDS011;54456;48.436;10.028;2022-12-07T11:37:59;7.93;;;3.08;;
67675;SDS011;54456;48.436;10.028;2022-12-07T11:39:52;7.85;;;3.05;;
67675;SDS011;54456;48.436;10.028;2022-12-07T11:43:32;8.00;;;3.17;;
67675;SDS011;54456;48.436;10.028;2022-12-07T11:45:12;8.07;;;3.17;;
67675;SDS011;54456;48.436;10.028;2022-12-07T11:46:56;7.03;;;2.80;;
67675;SDS011;54456;48.436;10.028;2022-12-07T11:48:46;8.52;;;3.22;;
67675;SDS011;54456;48.436;10.028;2022-12-07T11:50:26;8.48;;;2.90;;
67675;SDS011;54456;48.436;10.028;2022-12-07T11:52:01;8.38;;;3.25;;
67675;SDS011;54456;48.436;10.028;2022-12-07T11:53:38;7.53;;;2.97;;
67675;SDS011;54456;48.436;10.028;2022-12-07T11:55:19;8.13;;;2.95;;
67675;SDS011;54456;48.436;10.028;2022-12-07T11:56:54;8.88;;;2.97;;
67675;SDS011;54456;48.436;10.028;2022-12-07T12:00:18;8.38;;;3.20;;
67675;SDS011;54456;48.436;10.028;2022-12-07T12:03:45;7.35;;;2.60;;
67675;SDS011;54456;48.436;10.028;2022-12-07T12:06:48;8.48;;;3.60;;
67675;SDS011;54456;48.436;10.028;2022-12-07T12:08:24;9.90;;;3.00;;
67675;SDS011;54456;48.436;10.028;2022-12-07T12:10:35;8.23;;;3.00;;
67675;SDS011;54456;48.436;10.028;2022-12-07T12:16:06;8.65;;;3.35;;
67675;SDS011;54456;48.436;10.028;2022-12-07T12:19:32;9.60;;;3.30;;
67675;SDS011;54456;48.436;10.028;2022-12-07T12:21:08;7.93;;;3.08;;
67675;SDS011;54456;48.436;10.028;2022-12-07T12:22:42;9.35;;;3.33;;
67675;SDS011;54456;48.436;10.028;2022-12-07T12:24:18;8.43;;;3.45;;
67675;SDS011;54456;48.436;10.028;2022-12-07T12:25:54;7.80;;;3.10;;
67675;SDS011;54456;48.436;10.028;2022-12-07T12:27:27;9.07;;;3.38;;
67675;SDS011;54456;48.436;10.028;2022-12-07T12:29:05;8.05;;;3.20;;
67675;SDS011;54456;48.436;10.028;2022-12-07T12:30:39;8.82;;;3.75;;
67675;SDS011;54456;48.436;10.028;2022-12-07T12:32:13;9.90;;;3.53;;
67675;SDS011;54456;48.436;10.028;2022-12-07T12:33:51;10.65;;;3.15;;
67675;SDS011;54456;48.436;10.028;2022-12-07T12:36:56;7.72;;;2.92;;
67675;SDS011;54456;48.436;10.028;2022-12-07T12:38:29;8.43;;;3.30;;
67675;SDS011;54456;48.436;10.028;2022-12-07T12:40:12;8.27;;;3.03;;
67675;SDS011;54456;48.436;10.028;2022-12-07T12:41:54;9.35;;;3.55;;
67675;SDS011;54456;48.436;10.028;2022-12-07T12:45:38;8.93;;;3.58;;
67675;SDS011;54456;48.436;10.028;2022-12-07T12:50:46;8.57;;;3.30;;
67675;SDS011;54456;48.436;10.028;2022-12-07T12:57:37;8.38;;;3.20;;
67675;SDS011;54456;48.436;10.028;2022-12-07T12:59:40;8.35;;;3.33;;
67675;SDS011;54456;48.436;10.028;2022-12-07T13:03:05;8.35;;;3.42;;
67675;SDS011;54456;48.436;10.028;2022-12-07T13:04:39;10.27;;;4.07;;
67675;SDS011;54456;48.436;10.028;2022-12-07T13:06:29;9.55;;;3.38;;
67675;SDS011;54456;48.436;10.028;2022-12-07T13:08:17;8.25;;;3.33;;
67675;SDS011;54456;48.436;10.028;2022-12-07T13:09:50;9.32;;;3.75;;
67675;SDS011;54456;48.436;10.028;2022-12-07T13:11:31;8.18;;;3.50;;
67675;SDS011;54456;48.436;10.028;2022-12-07T13:14:54;10.15;;;3.67;;
67675;SDS011;54456;48.436;10.028;2022-12-07T13:16:37;8.05;;;3.15;;
67675;SDS011;54456;48.436;10.028;2022-12-07T13:18:22;8.38;;;3.15;;
67675;SDS011;54456;48.436;10.028;2022-12-07T13:19:59;7.10;;;2.88;;
67675;SDS011;54456;48.436;10.028;2022-12-07T13:23:04;7.70;;;3.30;;
67675;SDS011;54456;48.436;10.028;2022-12-07T13:24:36;7.82;;;2.97;;
67675;SDS011;54456;48.436;10.028;2022-12-07T13:29:48;7.18;;;2.80;;
67675;SDS011;54456;48.436;10.028;2022-12-07T13:33:03;8.25;;;3.00;;
67675;SDS011;54456;48.436;10.028;2022-12-07T13:36:04;7.72;;;3.00;;
67675;SDS011;54456;48.436;10.028;2022-12-07T13:37:44;8.57;;;2.78;;
67675;SDS011;54456;48.436;10.028;2022-12-07T13:40:58;6.80;;;2.70;;
67675;SDS011;54456;48.436;10.028;2022-12-07T13:42:33;7.65;;;3.10;;
67675;SDS011;54456;48.436;10.028;2022-12-07T13:44:14;9.43;;;2.72;;
67675;SDS011;54456;48.436;10.028;2022-12-07T13:47:23;8.35;;;2.63;;
67675;SDS011;54456;48.436;10.028;2022-12-07T13:49:01;7.65;;;2.42;;
67675;SDS011;54456;48.436;10.028;2022-12-07T13:50:31;6.65;;;2.70;;
67675;SDS011;54456;48.436;10.028;2022-12-07T13:52:24;7.45;;;4.30;;
67675;SDS011;54456;48.436;10.028;2022-12-07T13:53:59;6.78;;;2.55;;
67675;SDS011;54456;48.436;10.028;2022-12-07T13:55:31;6.43;;;2.42;;
67675;SDS011;54456;48.436;10.028;2022-12-07T13:57:01;5.93;;;2.13;;
67675;SDS011;54456;48.436;10.028;2022-12-07T13:58:31;6.20;;;2.27;;
67675;SDS011;54456;48.436;10.028;2022-12-07T14:00:04;6.13;;;2.35;;
67675;SDS011;54456;48.436;10.028;2022-12-07T14:01:36;6.20;;;2.25;;
67675;SDS011;54456;48.436;10.028;2022-12-07T14:04:42;5.93;;;2.25;;
67675;SDS011;54456;48.436;10.028;2022-12-07T14:06:26;6.80;;;2.43;;
67675;SDS011;54456;48.436;10.028;2022-12-07T14:09:33;6.22;;;2.22;;
67675;SDS011;54456;48.436;10.028;2022-12-07T14:11:03;6.50;;;2.30;;
67675;SDS011;54456;48.436;10.028;2022-12-07T14:12:35;6.28;;;2.30;;
67675;SDS011;54456;48.436;10.028;2022-12-07T14:14:11;6.20;;;2.53;;
67675;SDS011;54456;48.436;10.028;2022-12-07T14:15:44;6.20;;;2.45;;
67675;SDS011;54456;48.436;10.028;2022-12-07T14:17:22;6.72;;;2.30;;
67675;SDS011;54456;48.436;10.028;2022-12-07T14:18:54;5.65;;;2.15;;
67675;SDS011;54456;48.436;10.028;2022-12-07T14:22:06;6.53;;;2.20;;
67675;SDS011;54456;48.436;10.028;2022-12-07T14:23:38;7.07;;;2.47;;
67675;SDS011;54456;48.436;10.028;2022-12-07T14:26:43;6.47;;;2.28;;
67675;SDS011;54456;48.436;10.028;2022-12-07T14:28:31;5.28;;;2.13;;
67675;SDS011;54456;48.436;10.028;2022-12-07T14:30:03;6.63;;;2.20;;
67675;SDS011;54456;48.436;10.028;2022-12-07T14:31:35;6.50;;;2.17;;
67675;SDS011;54456;48.436;10.028;2022-12-07T14:33:07;6.50;;;2.10;;
67675;SDS011;54456;48.436;10.028;2022-12-07T14:34:38;7.13;;;2.30;;
67675;SDS011;54456;48.436;10.028;2022-12-07T14:36:09;5.97;;;2.33;;
67675;SDS011;54456;48.436;10.028;2022-12-07T14:37:41;6.88;;;2.15;;
67675;SDS011;54456;48.436;10.028;2022-12-07T14:39:13;6.88;;;2.30;;
67675;SDS011;54456;48.436;10.028;2022-12-07T14:40:43;7.35;;;2.42;;
67675;SDS011;54456;48.436;10.028;2022-12-07T14:42:14;5.88;;;2.10;;
67675;SDS011;54456;48.436;10.028;2022-12-07T14:43:44;6.72;;;2.00;;
67675;SDS011;54456;48.436;10.028;2022-12-07T14:45:16;7.05;;;2.50;;
67675;SDS011;54456;48.436;10.028;2022-12-07T14:46:49;6.88;;;2.20;;
67675;SDS011;54456;48.436;10.028;2022-12-07T14:48:19;6.85;;;2.33;;
